Celtic Voyager — EIQN — position and weather

sailwx.info

Track history (hours):
 
Tides and Currents Weather Stations Pressure Air Temp Water Temp Dewpoint Dewpoint Depression Visibility Wind Speed Wind Dir Waves Ship Positions

Oceanographic research ship Celtic Voyager (Ireland)

Detailed information on ship capabilities available from University of Delaware's Ocean Information Center.

Last reported at 2018-Feb-19 09:56 UTC. Time now 2018-Feb-19 10:20 UTC.
Position N 51°54' W 008°28'.

Length 31 m; beam 8 m.

Type: Ship. MMSI: 250089000.

Date/timePositionNaut miles runAvg speedWind from/ knotsBaromVisibWave heightAir tempDewpointWater temp
2018-Feb-19 09:56N 51°54' W 008°28'0 0.0
2018-Feb-19 09:08N 51°54' W 008°28'0 0.0
2018-Feb-19 08:59N 51°54' W 008°28'0 0.0
2018-Feb-19 06:53N 51°54' W 008°28'0 0.0
2018-Feb-19 06:20N 51°54' W 008°28'0 0.0
2018-Feb-19 05:59N 51°54' W 008°28'0 0.0
2018-Feb-19 05:29N 51°54' W 008°28'0 0.0
2018-Feb-19 04:59N 51°54' W 008°28'0 0.0
2018-Feb-19 04:29N 51°54' W 008°28'0 0.0
2018-Feb-19 03:59N 51°54' W 008°28'0 0.0
2018-Feb-19 03:29N 51°54' W 008°28'0 0.0
2018-Feb-19 02:59N 51°54' W 008°28'0 0.0
2018-Feb-19 02:29N 51°54' W 008°28'0 0.0
2018-Feb-19 01:59N 51°54' W 008°28'0 0.0
2018-Feb-19 01:29N 51°54' W 008°28'0 0.0
2018-Feb-19 00:59N 51°54' W 008°28'0 0.0
2018-Feb-19 00:29N 51°54' W 008°28'0 0.0
2018-Feb-18 23:59N 51°54' W 008°28'0 0.0
2018-Feb-18 23:29N 51°54' W 008°28'0 0.0
2018-Feb-18 22:56N 51°54' W 008°28'0 0.0
2018-Feb-18 22:29N 51°54' W 008°28'0 0.0
2018-Feb-18 21:59N 51°54' W 008°28'0 0.0
2018-Feb-18 21:20N 51°54' W 008°28'0 0.0
2018-Feb-18 17:35N 51°54' W 008°28'0 0.0
2018-Feb-18 17:17N 51°54' W 008°28'0 0.0
2018-Feb-18 16:59N 51°54' W 008°28'0 0.0
2018-Feb-18 16:29N 51°54' W 008°28'0 0.0
2018-Feb-18 15:59N 51°54' W 008°28'0 0.0
2018-Feb-18 15:29N 51°54' W 008°28'0 0.0
2018-Feb-18 14:53N 51°54' W 008°28'0 0.0
2018-Feb-18 14:20N 51°54' W 008°28'0 0.0
2018-Feb-18 13:59N 51°54' W 008°28'0 0.0
2018-Feb-18 13:29N 51°54' W 008°28'0 0.0
2018-Feb-18 12:59N 51°54' W 008°28'0 0.0
2018-Feb-18 12:29N 51°54' W 008°28'0 0.0
2018-Feb-18 11:59N 51°54' W 008°28'0 0.0
2018-Feb-18 11:30N 51°54' W 008°28'2 5.0
2018-Feb-18 11:00N 51°54' W 008°24'4 7.2
2018-Feb-18 10:30N 51°51' W 008°20'3 5.2
2018-Feb-18 10:00N 51°50' W 008°16'3 6.4
2018-Feb-18 09:30N 51°47' W 008°16'1 2.4
2018-Feb-18 09:01N 51°46' W 008°16'0 0.8
2018-Feb-18 08:30N 51°46' W 008°16'0 0.2
2018-Feb-18 08:00N 51°46' W 008°16'3 6.4
2018-Feb-18 07:30N 51°43' W 008°17'5 9.3
2018-Feb-18 07:00N 51°40' W 008°22'5 9.5
2018-Feb-18 06:30N 51°37' W 008°28'5 9.4
2018-Feb-18 06:00N 51°34' W 008°34'5 9.7
2018-Feb-18 05:30N 51°32' W 008°42'5 9.7
2018-Feb-18 05:00N 51°31' W 008°49'5 9.7
2018-Feb-18 04:30N 51°30' W 008°56'5 9.8
2018-Feb-18 04:01N 51°28' W 009°04'5 9.7
2018-Feb-18 03:30N 51°26' W 009°11'5 9.7
2018-Feb-18 03:00N 51°25' W 009°19'5 9.3
2018-Feb-18 02:30N 51°25' W 009°26'4 8.8
2018-Feb-18 02:00N 51°24' W 009°33'4 8.7
2018-Feb-18 01:30N 51°25' W 009°40'4 8.4
2018-Feb-18 01:00N 51°25' W 009°47'4 7.8
2018-Feb-18 00:30N 51°25' W 009°53'4 7.7
2018-Feb-18 00:00N 51°27' W 009°59'4 8.3
2018-Feb-17 23:30N 51°29' W 010°04'4 8.3
2018-Feb-17 23:00N 51°31' W 010°10'4 8.3
2018-Feb-17 22:31N 51°32' W 010°17'4 7.8
2018-Feb-17 21:58N 51°35' W 010°22'6 8.4
2018-Feb-17 21:17N 51°40' W 010°24'  
Track history (hours):
 
Tides and Currents Weather Stations Pressure Air Temp Water Temp Dewpoint Dewpoint Depression Visibility Wind Speed Wind Dir Waves Ship Positions

Oceanographic research ship Celtic Voyager (Ireland)

Detailed information on ship capabilities available from University of Delaware's Ocean Information Center.

Last reported at 2018-Feb-19 09:56 UTC. Time now 2018-Feb-19 10:20 UTC.
Position N 51°54' W 008°28'.

Length 31 m; beam 8 m.

Type: Ship. MMSI: 250089000.

Date/timePositionNaut miles runAvg speedWind from/ knotsBaromVisibWave heightAir tempDewpointWater temp
2018-Feb-19 09:56N 51°54' W 008°28'0 0.0
2018-Feb-19 09:08N 51°54' W 008°28'0 0.0
2018-Feb-19 08:59N 51°54' W 008°28'0 0.0
2018-Feb-19 06:53N 51°54' W 008°28'0 0.0
2018-Feb-19 06:20N 51°54' W 008°28'0 0.0
2018-Feb-19 05:59N 51°54' W 008°28'0 0.0
2018-Feb-19 05:29N 51°54' W 008°28'0 0.0
2018-Feb-19 04:59N 51°54' W 008°28'0 0.0
2018-Feb-19 04:29N 51°54' W 008°28'0 0.0
2018-Feb-19 03:59N 51°54' W 008°28'0 0.0
2018-Feb-19 03:29N 51°54' W 008°28'0 0.0
2018-Feb-19 02:59N 51°54' W 008°28'0 0.0
2018-Feb-19 02:29N 51°54' W 008°28'0 0.0
2018-Feb-19 01:59N 51°54' W 008°28'0 0.0
2018-Feb-19 01:29N 51°54' W 008°28'0 0.0
2018-Feb-19 00:59N 51°54' W 008°28'0 0.0
2018-Feb-19 00:29N 51°54' W 008°28'0 0.0
2018-Feb-18 23:59N 51°54' W 008°28'0 0.0
2018-Feb-18 23:29N 51°54' W 008°28'0 0.0
2018-Feb-18 22:56N 51°54' W 008°28'0 0.0
2018-Feb-18 22:29N 51°54' W 008°28'0 0.0
2018-Feb-18 21:59N 51°54' W 008°28'0 0.0
2018-Feb-18 21:20N 51°54' W 008°28'0 0.0
2018-Feb-18 17:35N 51°54' W 008°28'0 0.0
2018-Feb-18 17:17N 51°54' W 008°28'0 0.0
2018-Feb-18 16:59N 51°54' W 008°28'0 0.0
2018-Feb-18 16:29N 51°54' W 008°28'0 0.0
2018-Feb-18 15:59N 51°54' W 008°28'0 0.0
2018-Feb-18 15:29N 51°54' W 008°28'0 0.0
2018-Feb-18 14:53N 51°54' W 008°28'0 0.0
2018-Feb-18 14:20N 51°54' W 008°28'0 0.0
2018-Feb-18 13:59N 51°54' W 008°28'0 0.0
2018-Feb-18 13:29N 51°54' W 008°28'0 0.0
2018-Feb-18 12:59N 51°54' W 008°28'0 0.0
2018-Feb-18 12:29N 51°54' W 008°28'0 0.0
2018-Feb-18 11:59N 51°54' W 008°28'0 0.0
2018-Feb-18 11:30N 51°54' W 008°28'2 5.0
2018-Feb-18 11:00N 51°54' W 008°24'4 7.2
2018-Feb-18 10:30N 51°51' W 008°20'3 5.2
2018-Feb-18 10:00N 51°50' W 008°16'3 6.4
2018-Feb-18 09:30N 51°47' W 008°16'1 2.4
2018-Feb-18 09:01N 51°46' W 008°16'0 0.8
2018-Feb-18 08:30N 51°46' W 008°16'0 0.2
2018-Feb-18 08:00N 51°46' W 008°16'3 6.4
2018-Feb-18 07:30N 51°43' W 008°17'5 9.3
2018-Feb-18 07:00N 51°40' W 008°22'5 9.5
2018-Feb-18 06:30N 51°37' W 008°28'5 9.4
2018-Feb-18 06:00N 51°34' W 008°34'5 9.7
2018-Feb-18 05:30N 51°32' W 008°42'5 9.7
2018-Feb-18 05:00N 51°31' W 008°49'5 9.7
2018-Feb-18 04:30N 51°30' W 008°56'5 9.8
2018-Feb-18 04:01N 51°28' W 009°04'5 9.7
2018-Feb-18 03:30N 51°26' W 009°11'5 9.7
2018-Feb-18 03:00N 51°25' W 009°19'5 9.3
2018-Feb-18 02:30N 51°25' W 009°26'4 8.8
2018-Feb-18 02:00N 51°24' W 009°33'4 8.7
2018-Feb-18 01:30N 51°25' W 009°40'4 8.4
2018-Feb-18 01:00N 51°25' W 009°47'4 7.8
2018-Feb-18 00:30N 51°25' W 009°53'4 7.7
2018-Feb-18 00:00N 51°27' W 009°59'4 8.3
2018-Feb-17 23:30N 51°29' W 010°04'4 8.3
2018-Feb-17 23:00N 51°31' W 010°10'4 8.3
2018-Feb-17 22:31N 51°32' W 010°17'4 7.8
2018-Feb-17 21:58N 51°35' W 010°22'6 8.4
2018-Feb-17 21:17N 51°40' W 010°24'  

Dump ship's entire track history